sensor_id;sensor_type;location;lat;lon;timestamp;P1;durP1;ratioP1;P2;durP2;ratioP2
16832;SDS011;8533;48.426;10.868;2022-12-18T00:01:34;52.63;;;17.10;;
16832;SDS011;8533;48.426;10.868;2022-12-18T00:06:31;52.33;;;18.20;;
16832;SDS011;8533;48.426;10.868;2022-12-18T00:08:59;56.77;;;18.43;;
16832;SDS011;8533;48.426;10.868;2022-12-18T00:11:29;50.23;;;18.10;;
16832;SDS011;8533;48.426;10.868;2022-12-18T00:13:58;56.40;;;17.70;;
16832;SDS011;8533;48.426;10.868;2022-12-18T00:16:28;59.60;;;18.57;;
16832;SDS011;8533;48.426;10.868;2022-12-18T00:18:57;60.57;;;18.07;;
16832;SDS011;8533;48.426;10.868;2022-12-18T00:21:26;56.43;;;18.83;;
16832;SDS011;8533;48.426;10.868;2022-12-18T00:23:55;63.47;;;18.87;;
16832;SDS011;8533;48.426;10.868;2022-12-18T00:26:24;51.93;;;16.43;;
16832;SDS011;8533;48.426;10.868;2022-12-18T00:28:54;57.40;;;18.97;;
16832;SDS011;8533;48.426;10.868;2022-12-18T00:31:24;61.00;;;18.80;;
16832;SDS011;8533;48.426;10.868;2022-12-18T00:33:53;54.00;;;17.97;;
16832;SDS011;8533;48.426;10.868;2022-12-18T00:36:27;64.07;;;18.73;;
16832;SDS011;8533;48.426;10.868;2022-12-18T00:38:55;70.30;;;20.93;;
16832;SDS011;8533;48.426;10.868;2022-12-18T00:41:24;59.57;;;19.33;;
16832;SDS011;8533;48.426;10.868;2022-12-18T00:44:11;45.57;;;17.87;;
16832;SDS011;8533;48.426;10.868;2022-12-18T00:46:40;51.93;;;17.97;;
16832;SDS011;8533;48.426;10.868;2022-12-18T00:49:09;52.67;;;17.83;;
16832;SDS011;8533;48.426;10.868;2022-12-18T00:51:36;49.60;;;16.30;;
16832;SDS011;8533;48.426;10.868;2022-12-18T00:54:04;62.17;;;18.33;;
16832;SDS011;8533;48.426;10.868;2022-12-18T00:56:31;65.87;;;17.93;;
16832;SDS011;8533;48.426;10.868;2022-12-18T00:58:58;53.20;;;17.80;;
16832;SDS011;8533;48.426;10.868;2022-12-18T01:01:26;65.83;;;18.73;;
16832;SDS011;8533;48.426;10.868;2022-12-18T01:03:53;53.77;;;17.40;;
16832;SDS011;8533;48.426;10.868;2022-12-18T01:06:21;56.00;;;17.17;;
16832;SDS011;8533;48.426;10.868;2022-12-18T01:08:49;56.50;;;18.13;;
16832;SDS011;8533;48.426;10.868;2022-12-18T01:11:17;46.37;;;15.53;;
16832;SDS011;8533;48.426;10.868;2022-12-18T01:13:46;47.73;;;17.27;;
16832;SDS011;8533;48.426;10.868;2022-12-18T01:16:14;56.10;;;18.10;;
16832;SDS011;8533;48.426;10.868;2022-12-18T01:18:44;60.87;;;16.77;;
16832;SDS011;8533;48.426;10.868;2022-12-18T01:21:15;46.50;;;17.03;;
16832;SDS011;8533;48.426;10.868;2022-12-18T01:23:42;53.07;;;15.97;;
16832;SDS011;8533;48.426;10.868;2022-12-18T01:26:12;49.80;;;16.40;;
16832;SDS011;8533;48.426;10.868;2022-12-18T01:28:41;57.90;;;16.83;;
16832;SDS011;8533;48.426;10.868;2022-12-18T01:31:15;46.63;;;15.03;;
16832;SDS011;8533;48.426;10.868;2022-12-18T01:36:15;50.00;;;16.93;;
16832;SDS011;8533;48.426;10.868;2022-12-18T01:38:47;61.00;;;18.53;;
16832;SDS011;8533;48.426;10.868;2022-12-18T01:41:16;50.67;;;17.90;;
16832;SDS011;8533;48.426;10.868;2022-12-18T01:43:50;52.90;;;18.33;;
16832;SDS011;8533;48.426;10.868;2022-12-18T01:48:51;52.53;;;16.93;;
16832;SDS011;8533;48.426;10.868;2022-12-18T01:51:20;53.83;;;16.93;;
16832;SDS011;8533;48.426;10.868;2022-12-18T01:53:49;40.87;;;15.97;;
16832;SDS011;8533;48.426;10.868;2022-12-18T01:56:17;48.40;;;15.27;;
16832;SDS011;8533;48.426;10.868;2022-12-18T02:01:17;49.50;;;14.80;;
16832;SDS011;8533;48.426;10.868;2022-12-18T02:03:46;44.87;;;15.20;;
16832;SDS011;8533;48.426;10.868;2022-12-18T02:06:19;49.57;;;15.50;;
16832;SDS011;8533;48.426;10.868;2022-12-18T02:09:04;49.43;;;15.73;;
16832;SDS011;8533;48.426;10.868;2022-12-18T02:11:44;49.93;;;15.70;;
16832;SDS011;8533;48.426;10.868;2022-12-18T02:14:28;39.30;;;16.00;;
16832;SDS011;8533;48.426;10.868;2022-12-18T02:17:16;47.37;;;14.83;;
16832;SDS011;8533;48.426;10.868;2022-12-18T02:19:46;54.07;;;16.27;;
16832;SDS011;8533;48.426;10.868;2022-12-18T02:25:35;58.30;;;17.20;;
16832;SDS011;8533;48.426;10.868;2022-12-18T02:28:01;47.00;;;15.50;;
16832;SDS011;8533;48.426;10.868;2022-12-18T02:30:31;48.57;;;15.30;;
16832;SDS011;8533;48.426;10.868;2022-12-18T02:33:01;56.93;;;17.30;;
16832;SDS011;8533;48.426;10.868;2022-12-18T02:35:31;54.53;;;16.67;;
16832;SDS011;8533;48.426;10.868;2022-12-18T02:38:01;50.13;;;17.10;;
16832;SDS011;8533;48.426;10.868;2022-12-18T02:40:30;48.07;;;15.47;;
16832;SDS011;8533;48.426;10.868;2022-12-18T02:43:13;56.70;;;18.20;;
16832;SDS011;8533;48.426;10.868;2022-12-18T02:50:53;35.57;;;13.57;;
16832;SDS011;8533;48.426;10.868;2022-12-18T02:53:45;36.43;;;12.33;;
16832;SDS011;8533;48.426;10.868;2022-12-18T02:56:12;43.90;;;14.53;;
16832;SDS011;8533;48.426;10.868;2022-12-18T02:59:02;38.20;;;13.23;;
16832;SDS011;8533;48.426;10.868;2022-12-18T03:01:38;39.15;;;16.55;;
16832;SDS011;8533;48.426;10.868;2022-12-18T03:04:14;40.10;;;14.15;;
16832;SDS011;8533;48.426;10.868;2022-12-18T03:06:46;49.90;;;14.83;;
16832;SDS011;8533;48.426;10.868;2022-12-18T03:09:22;52.47;;;15.83;;
16832;SDS011;8533;48.426;10.868;2022-12-18T03:11:49;38.17;;;11.40;;
16832;SDS011;8533;48.426;10.868;2022-12-18T03:14:35;46.70;;;15.73;;
16832;SDS011;8533;48.426;10.868;2022-12-18T03:17:05;34.43;;;13.37;;
16832;SDS011;8533;48.426;10.868;2022-12-18T03:19:35;48.67;;;14.50;;
16832;SDS011;8533;48.426;10.868;2022-12-18T03:22:04;37.13;;;11.87;;
16832;SDS011;8533;48.426;10.868;2022-12-18T03:24:34;35.43;;;12.70;;
16832;SDS011;8533;48.426;10.868;2022-12-18T03:27:05;40.67;;;12.80;;
16832;SDS011;8533;48.426;10.868;2022-12-18T03:29:38;34.37;;;11.60;;
16832;SDS011;8533;48.426;10.868;2022-12-18T03:32:10;33.33;;;12.13;;
16832;SDS011;8533;48.426;10.868;2022-12-18T03:34:39;29.70;;;11.40;;
16832;SDS011;8533;48.426;10.868;2022-12-18T03:37:08;38.67;;;10.83;;
16832;SDS011;8533;48.426;10.868;2022-12-18T03:39:36;30.77;;;10.87;;
16832;SDS011;8533;48.426;10.868;2022-12-18T03:50:14;31.13;;;12.33;;
16832;SDS011;8533;48.426;10.868;2022-12-18T03:55:14;31.97;;;10.63;;
16832;SDS011;8533;48.426;10.868;2022-12-18T03:57:43;27.17;;;10.93;;
16832;SDS011;8533;48.426;10.868;2022-12-18T04:00:13;32.50;;;11.00;;
16832;SDS011;8533;48.426;10.868;2022-12-18T04:02:49;40.27;;;12.27;;
16832;SDS011;8533;48.426;10.868;2022-12-18T04:05:14;28.53;;;9.67;;
16832;SDS011;8533;48.426;10.868;2022-12-18T04:07:45;40.93;;;13.27;;
16832;SDS011;8533;48.426;10.868;2022-12-18T04:10:14;38.47;;;12.37;;
16832;SDS011;8533;48.426;10.868;2022-12-18T04:12:42;41.20;;;13.40;;
16832;SDS011;8533;48.426;10.868;2022-12-18T04:15:10;43.53;;;12.73;;
16832;SDS011;8533;48.426;10.868;2022-12-18T04:17:39;38.47;;;13.10;;
16832;SDS011;8533;48.426;10.868;2022-12-18T04:20:09;41.00;;;13.93;;
16832;SDS011;8533;48.426;10.868;2022-12-18T04:22:36;37.67;;;13.00;;
16832;SDS011;8533;48.426;10.868;2022-12-18T04:25:04;38.60;;;13.23;;
16832;SDS011;8533;48.426;10.868;2022-12-18T04:27:31;42.70;;;12.43;;
16832;SDS011;8533;48.426;10.868;2022-12-18T04:29:59;43.33;;;15.67;;
16832;SDS011;8533;48.426;10.868;2022-12-18T04:32:26;46.37;;;15.77;;
16832;SDS011;8533;48.426;10.868;2022-12-18T04:34:54;47.60;;;16.20;;
16832;SDS011;8533;48.426;10.868;2022-12-18T04:37:21;51.13;;;16.30;;
16832;SDS011;8533;48.426;10.868;2022-12-18T04:39:49;53.03;;;15.63;;
16832;SDS011;8533;48.426;10.868;2022-12-18T04:42:16;46.13;;;13.70;;
16832;SDS011;8533;48.426;10.868;2022-12-18T04:44:43;45.20;;;14.43;;
16832;SDS011;8533;48.426;10.868;2022-12-18T04:47:11;40.90;;;11.30;;
16832;SDS011;8533;48.426;10.868;2022-12-18T04:49:38;38.60;;;13.13;;
16832;SDS011;8533;48.426;10.868;2022-12-18T04:52:06;39.50;;;12.33;;
16832;SDS011;8533;48.426;10.868;2022-12-18T04:54:33;39.20;;;14.50;;
16832;SDS011;8533;48.426;10.868;2022-12-18T04:57:00;42.00;;;13.97;;
16832;SDS011;8533;48.426;10.868;2022-12-18T04:59:28;39.17;;;13.43;;
16832;SDS011;8533;48.426;10.868;2022-12-18T05:01:55;37.40;;;14.50;;
16832;SDS011;8533;48.426;10.868;2022-12-18T05:04:23;43.13;;;16.10;;
16832;SDS011;8533;48.426;10.868;2022-12-18T05:06:50;50.70;;;16.13;;
16832;SDS011;8533;48.426;10.868;2022-12-18T05:09:18;52.23;;;17.47;;
16832;SDS011;8533;48.426;10.868;2022-12-18T05:11:45;48.33;;;16.13;;
16832;SDS011;8533;48.426;10.868;2022-12-18T05:14:12;47.00;;;15.07;;
16832;SDS011;8533;48.426;10.868;2022-12-18T05:16:40;51.47;;;16.53;;
16832;SDS011;8533;48.426;10.868;2022-12-18T05:19:07;35.67;;;13.60;;
16832;SDS011;8533;48.426;10.868;2022-12-18T05:21:35;51.53;;;16.17;;
16832;SDS011;8533;48.426;10.868;2022-12-18T05:24:02;48.17;;;16.17;;
16832;SDS011;8533;48.426;10.868;2022-12-18T05:26:30;46.30;;;16.27;;
16832;SDS011;8533;48.426;10.868;2022-12-18T05:28:57;47.40;;;15.43;;
16832;SDS011;8533;48.426;10.868;2022-12-18T05:31:25;53.37;;;16.20;;
16832;SDS011;8533;48.426;10.868;2022-12-18T05:33:52;46.67;;;14.70;;
16832;SDS011;8533;48.426;10.868;2022-12-18T05:36:20;49.70;;;12.97;;
16832;SDS011;8533;48.426;10.868;2022-12-18T05:38:47;41.47;;;15.53;;
16832;SDS011;8533;48.426;10.868;2022-12-18T05:41:15;43.87;;;14.57;;
16832;SDS011;8533;48.426;10.868;2022-12-18T05:43:43;38.80;;;12.97;;
16832;SDS011;8533;48.426;10.868;2022-12-18T05:46:14;51.50;;;17.47;;
16832;SDS011;8533;48.426;10.868;2022-12-18T05:51:15;49.63;;;14.83;;
16832;SDS011;8533;48.426;10.868;2022-12-18T05:53:44;52.17;;;15.77;;
16832;SDS011;8533;48.426;10.868;2022-12-18T05:56:13;43.77;;;15.43;;
16832;SDS011;8533;48.426;10.868;2022-12-18T05:58:43;50.17;;;14.90;;
16832;SDS011;8533;48.426;10.868;2022-12-18T06:03:44;42.83;;;15.53;;
16832;SDS011;8533;48.426;10.868;2022-12-18T06:06:13;43.17;;;14.33;;
16832;SDS011;8533;48.426;10.868;2022-12-18T06:08:42;54.70;;;13.10;;
16832;SDS011;8533;48.426;10.868;2022-12-18T06:11:09;41.13;;;12.77;;
16832;SDS011;8533;48.426;10.868;2022-12-18T06:13:37;45.03;;;12.37;;
16832;SDS011;8533;48.426;10.868;2022-12-18T06:16:05;33.17;;;11.87;;
16832;SDS011;8533;48.426;10.868;2022-12-18T06:18:33;35.73;;;13.53;;
16832;SDS011;8533;48.426;10.868;2022-12-18T06:21:01;50.13;;;13.83;;
16832;SDS011;8533;48.426;10.868;2022-12-18T06:23:28;38.87;;;12.53;;
16832;SDS011;8533;48.426;10.868;2022-12-18T06:25:56;38.57;;;12.77;;
16832;SDS011;8533;48.426;10.868;2022-12-18T06:28:23;41.73;;;14.37;;
16832;SDS011;8533;48.426;10.868;2022-12-18T06:30:51;38.97;;;13.33;;
16832;SDS011;8533;48.426;10.868;2022-12-18T06:33:18;42.93;;;12.53;;
16832;SDS011;8533;48.426;10.868;2022-12-18T06:35:45;45.10;;;13.53;;
16832;SDS011;8533;48.426;10.868;2022-12-18T06:38:13;42.30;;;13.93;;
16832;SDS011;8533;48.426;10.868;2022-12-18T06:40:42;41.90;;;13.43;;
16832;SDS011;8533;48.426;10.868;2022-12-18T06:43:10;41.73;;;14.10;;
16832;SDS011;8533;48.426;10.868;2022-12-18T06:45:37;41.20;;;13.13;;
16832;SDS011;8533;48.426;10.868;2022-12-18T06:48:05;38.70;;;11.97;;
16832;SDS011;8533;48.426;10.868;2022-12-18T06:50:32;39.60;;;12.63;;
16832;SDS011;8533;48.426;10.868;2022-12-18T06:53:00;32.03;;;12.00;;
16832;SDS011;8533;48.426;10.868;2022-12-18T06:55:27;43.10;;;12.50;;
16832;SDS011;8533;48.426;10.868;2022-12-18T06:57:54;40.73;;;13.63;;
16832;SDS011;8533;48.426;10.868;2022-12-18T07:00:22;35.63;;;12.17;;
16832;SDS011;8533;48.426;10.868;2022-12-18T07:02:50;36.37;;;11.73;;
16832;SDS011;8533;48.426;10.868;2022-12-18T07:05:17;41.87;;;11.80;;
16832;SDS011;8533;48.426;10.868;2022-12-18T07:07:45;43.70;;;13.47;;
16832;SDS011;8533;48.426;10.868;2022-12-18T07:10:12;36.10;;;12.67;;
16832;SDS011;8533;48.426;10.868;2022-12-18T07:12:40;46.20;;;13.70;;
16832;SDS011;8533;48.426;10.868;2022-12-18T07:15:07;41.57;;;12.67;;
16832;SDS011;8533;48.426;10.868;2022-12-18T07:17:35;39.60;;;14.47;;
16832;SDS011;8533;48.426;10.868;2022-12-18T07:20:03;34.53;;;11.73;;
16832;SDS011;8533;48.426;10.868;2022-12-18T07:22:30;46.57;;;13.90;;
16832;SDS011;8533;48.426;10.868;2022-12-18T07:24:58;42.37;;;12.33;;
16832;SDS011;8533;48.426;10.868;2022-12-18T07:27:25;44.47;;;12.97;;
16832;SDS011;8533;48.426;10.868;2022-12-18T07:29:53;34.07;;;12.47;;
16832;SDS011;8533;48.426;10.868;2022-12-18T07:32:20;41.07;;;12.27;;
16832;SDS011;8533;48.426;10.868;2022-12-18T07:34:48;37.63;;;11.80;;
16832;SDS011;8533;48.426;10.868;2022-12-18T07:37:15;42.37;;;15.23;;
16832;SDS011;8533;48.426;10.868;2022-12-18T07:39:43;44.70;;;14.53;;
16832;SDS011;8533;48.426;10.868;2022-12-18T07:42:10;35.47;;;12.13;;
16832;SDS011;8533;48.426;10.868;2022-12-18T07:44:56;40.90;;;13.70;;
16832;SDS011;8533;48.426;10.868;2022-12-18T07:47:25;41.73;;;12.70;;
16832;SDS011;8533;48.426;10.868;2022-12-18T07:49:53;34.60;;;11.27;;
16832;SDS011;8533;48.426;10.868;2022-12-18T07:52:21;33.80;;;12.43;;
16832;SDS011;8533;48.426;10.868;2022-12-18T07:54:49;41.27;;;14.17;;
16832;SDS011;8533;48.426;10.868;2022-12-18T07:57:18;49.67;;;14.27;;
16832;SDS011;8533;48.426;10.868;2022-12-18T07:59:46;43.80;;;14.37;;
16832;SDS011;8533;48.426;10.868;2022-12-18T08:02:13;35.90;;;12.27;;
16832;SDS011;8533;48.426;10.868;2022-12-18T08:04:41;37.37;;;13.40;;
16832;SDS011;8533;48.426;10.868;2022-12-18T08:07:14;33.13;;;12.10;;
16832;SDS011;8533;48.426;10.868;2022-12-18T08:09:38;37.63;;;12.07;;
16832;SDS011;8533;48.426;10.868;2022-12-18T08:12:06;40.40;;;13.97;;
16832;SDS011;8533;48.426;10.868;2022-12-18T08:14:33;37.20;;;12.83;;
16832;SDS011;8533;48.426;10.868;2022-12-18T08:17:01;44.83;;;15.23;;
16832;SDS011;8533;48.426;10.868;2022-12-18T08:19:28;39.10;;;12.13;;
16832;SDS011;8533;48.426;10.868;2022-12-18T08:21:55;35.50;;;11.77;;
16832;SDS011;8533;48.426;10.868;2022-12-18T08:24:23;35.07;;;12.70;;
16832;SDS011;8533;48.426;10.868;2022-12-18T08:26:51;34.20;;;12.63;;
16832;SDS011;8533;48.426;10.868;2022-12-18T08:29:19;39.53;;;12.93;;
16832;SDS011;8533;48.426;10.868;2022-12-18T08:31:47;37.23;;;13.13;;
16832;SDS011;8533;48.426;10.868;2022-12-18T08:34:14;33.53;;;13.63;;
16832;SDS011;8533;48.426;10.868;2022-12-18T08:36:42;32.70;;;12.43;;
16832;SDS011;8533;48.426;10.868;2022-12-18T08:39:09;34.57;;;12.60;;
16832;SDS011;8533;48.426;10.868;2022-12-18T08:41:36;37.53;;;13.60;;
16832;SDS011;8533;48.426;10.868;2022-12-18T08:44:07;36.60;;;12.97;;
16832;SDS011;8533;48.426;10.868;2022-12-18T08:46:52;37.90;;;13.27;;
16832;SDS011;8533;48.426;10.868;2022-12-18T08:49:20;38.03;;;13.53;;
16832;SDS011;8533;48.426;10.868;2022-12-18T08:51:47;39.00;;;13.73;;
16832;SDS011;8533;48.426;10.868;2022-12-18T08:54:16;39.53;;;14.47;;
16832;SDS011;8533;48.426;10.868;2022-12-18T08:56:44;36.23;;;14.00;;
16832;SDS011;8533;48.426;10.868;2022-12-18T08:59:11;43.23;;;14.53;;
16832;SDS011;8533;48.426;10.868;2022-12-18T09:01:38;46.23;;;13.17;;
16832;SDS011;8533;48.426;10.868;2022-12-18T09:04:07;32.87;;;12.80;;
16832;SDS011;8533;48.426;10.868;2022-12-18T09:06:36;47.90;;;15.20;;
16832;SDS011;8533;48.426;10.868;2022-12-18T09:09:04;35.03;;;13.70;;
16832;SDS011;8533;48.426;10.868;2022-12-18T09:11:32;44.87;;;14.30;;
16832;SDS011;8533;48.426;10.868;2022-12-18T09:14:00;43.90;;;14.43;;
16832;SDS011;8533;48.426;10.868;2022-12-18T09:16:28;40.03;;;14.87;;
16832;SDS011;8533;48.426;10.868;2022-12-18T09:18:57;34.90;;;13.37;;
16832;SDS011;8533;48.426;10.868;2022-12-18T09:21:26;44.13;;;13.93;;
16832;SDS011;8533;48.426;10.868;2022-12-18T09:23:55;37.90;;;13.47;;
16832;SDS011;8533;48.426;10.868;2022-12-18T09:26:23;36.47;;;12.33;;
16832;SDS011;8533;48.426;10.868;2022-12-18T09:28:52;43.03;;;13.10;;
16832;SDS011;8533;48.426;10.868;2022-12-18T09:31:20;40.53;;;15.17;;
16832;SDS011;8533;48.426;10.868;2022-12-18T09:33:50;36.87;;;13.80;;
16832;SDS011;8533;48.426;10.868;2022-12-18T09:36:18;39.90;;;14.73;;
16832;SDS011;8533;48.426;10.868;2022-12-18T09:38:45;34.47;;;13.57;;
16832;SDS011;8533;48.426;10.868;2022-12-18T09:44:17;41.10;;;13.00;;
16832;SDS011;8533;48.426;10.868;2022-12-18T09:49:23;39.20;;;13.47;;
16832;SDS011;8533;48.426;10.868;2022-12-18T09:51:59;40.70;;;14.03;;
16832;SDS011;8533;48.426;10.868;2022-12-18T09:54:33;33.93;;;12.77;;
16832;SDS011;8533;48.426;10.868;2022-12-18T09:59:32;38.67;;;13.37;;
16832;SDS011;8533;48.426;10.868;2022-12-18T10:04:36;35.87;;;13.40;;
16832;SDS011;8533;48.426;10.868;2022-12-18T10:07:05;34.27;;;11.83;;
16832;SDS011;8533;48.426;10.868;2022-12-18T10:09:37;39.87;;;12.37;;
16832;SDS011;8533;48.426;10.868;2022-12-18T10:12:21;31.13;;;12.97;;
16832;SDS011;8533;48.426;10.868;2022-12-18T10:17:30;37.63;;;13.80;;
16832;SDS011;8533;48.426;10.868;2022-12-18T10:20:16;35.20;;;13.20;;
16832;SDS011;8533;48.426;10.868;2022-12-18T10:22:53;43.07;;;13.63;;
16832;SDS011;8533;48.426;10.868;2022-12-18T10:25:50;37.20;;;14.13;;
16832;SDS011;8533;48.426;10.868;2022-12-18T10:28:21;43.57;;;15.07;;
16832;SDS011;8533;48.426;10.868;2022-12-18T10:30:51;44.67;;;15.10;;
16832;SDS011;8533;48.426;10.868;2022-12-18T10:33:20;32.20;;;13.03;;
16832;SDS011;8533;48.426;10.868;2022-12-18T10:35:49;36.23;;;12.83;;
16832;SDS011;8533;48.426;10.868;2022-12-18T10:43:26;40.03;;;13.80;;
16832;SDS011;8533;48.426;10.868;2022-12-18T10:46:00;62.17;;;23.40;;
16832;SDS011;8533;48.426;10.868;2022-12-18T10:51:05;103.70;;;36.23;;
16832;SDS011;8533;48.426;10.868;2022-12-18T10:53:34;44.63;;;14.80;;
16832;SDS011;8533;48.426;10.868;2022-12-18T10:56:03;44.67;;;18.03;;
16832;SDS011;8533;48.426;10.868;2022-12-18T10:58:34;43.83;;;14.97;;
16832;SDS011;8533;48.426;10.868;2022-12-18T11:01:05;42.20;;;15.80;;
16832;SDS011;8533;48.426;10.868;2022-12-18T11:06:14;49.83;;;19.70;;
16832;SDS011;8533;48.426;10.868;2022-12-18T11:08:44;38.73;;;14.33;;
16832;SDS011;8533;48.426;10.868;2022-12-18T11:11:19;31.70;;;13.03;;
16832;SDS011;8533;48.426;10.868;2022-12-18T11:19:44;35.43;;;12.20;;
16832;SDS011;8533;48.426;10.868;2022-12-18T11:24:15;37.73;;;12.10;;
16832;SDS011;8533;48.426;10.868;2022-12-18T11:29:17;33.17;;;13.87;;
16832;SDS011;8533;48.426;10.868;2022-12-18T11:31:46;40.23;;;14.23;;
16832;SDS011;8533;48.426;10.868;2022-12-18T11:34:26;39.03;;;13.67;;
16832;SDS011;8533;48.426;10.868;2022-12-18T11:36:57;37.60;;;14.30;;
16832;SDS011;8533;48.426;10.868;2022-12-18T11:39:37;35.37;;;13.10;;
16832;SDS011;8533;48.426;10.868;2022-12-18T11:44:53;38.13;;;14.37;;
16832;SDS011;8533;48.426;10.868;2022-12-18T11:47:39;32.30;;;12.75;;
16832;SDS011;8533;48.426;10.868;2022-12-18T11:50:17;36.70;;;14.47;;
16832;SDS011;8533;48.426;10.868;2022-12-18T11:52:43;42.40;;;13.87;;
16832;SDS011;8533;48.426;10.868;2022-12-18T11:55:12;42.87;;;14.37;;
16832;SDS011;8533;48.426;10.868;2022-12-18T11:58:30;39.40;;;14.70;;
16832;SDS011;8533;48.426;10.868;2022-12-18T12:00:14;29.90;;;12.27;;
16832;SDS011;8533;48.426;10.868;2022-12-18T12:08:31;36.47;;;13.67;;
16832;SDS011;8533;48.426;10.868;2022-12-18T12:14:03;33.27;;;12.83;;
16832;SDS011;8533;48.426;10.868;2022-12-18T12:31:03;34.93;;;12.57;;
16832;SDS011;8533;48.426;10.868;2022-12-18T12:38:42;34.20;;;12.70;;
16832;SDS011;8533;48.426;10.868;2022-12-18T12:41:12;27.93;;;11.73;;
16832;SDS011;8533;48.426;10.868;2022-12-18T12:44:01;35.03;;;13.17;;
16832;SDS011;8533;48.426;10.868;2022-12-18T12:46:31;26.67;;;11.27;;
16832;SDS011;8533;48.426;10.868;2022-12-18T12:49:02;34.13;;;13.57;;
16832;SDS011;8533;48.426;10.868;2022-12-18T12:51:35;29.27;;;12.63;;
16832;SDS011;8533;48.426;10.868;2022-12-18T12:54:08;26.23;;;11.47;;
16832;SDS011;8533;48.426;10.868;2022-12-18T12:59:22;27.93;;;12.50;;
16832;SDS011;8533;48.426;10.868;2022-12-18T13:04:27;35.20;;;13.93;;
16832;SDS011;8533;48.426;10.868;2022-12-18T13:09:31;29.90;;;12.40;;
16832;SDS011;8533;48.426;10.868;2022-12-18T13:12:04;33.77;;;13.00;;
16832;SDS011;8533;48.426;10.868;2022-12-18T13:14:51;33.37;;;14.43;;
16832;SDS011;8533;48.426;10.868;2022-12-18T13:22:36;28.20;;;12.07;;
16832;SDS011;8533;48.426;10.868;2022-12-18T13:28:04;29.27;;;11.20;;
16832;SDS011;8533;48.426;10.868;2022-12-18T13:38:22;30.40;;;11.07;;
16832;SDS011;8533;48.426;10.868;2022-12-18T13:40:56;33.17;;;11.67;;
16832;SDS011;8533;48.426;10.868;2022-12-18T13:43:28;36.50;;;13.33;;
16832;SDS011;8533;48.426;10.868;2022-12-18T13:45:59;27.97;;;11.83;;
16832;SDS011;8533;48.426;10.868;2022-12-18T13:51:07;30.67;;;11.70;;
16832;SDS011;8533;48.426;10.868;2022-12-18T13:53:46;31.67;;;11.20;;
16832;SDS011;8533;48.426;10.868;2022-12-18T13:56:15;30.97;;;12.03;;
16832;SDS011;8533;48.426;10.868;2022-12-18T13:58:43;32.57;;;11.80;;
16832;SDS011;8533;48.426;10.868;2022-12-18T14:01:23;38.30;;;11.77;;
16832;SDS011;8533;48.426;10.868;2022-12-18T14:06:19;31.03;;;11.10;;
16832;SDS011;8533;48.426;10.868;2022-12-18T14:08:47;37.07;;;11.10;;
16832;SDS011;8533;48.426;10.868;2022-12-18T14:11:19;30.10;;;11.53;;
16832;SDS011;8533;48.426;10.868;2022-12-18T14:13:49;31.73;;;11.20;;
16832;SDS011;8533;48.426;10.868;2022-12-18T14:16:17;31.43;;;12.07;;
16832;SDS011;8533;48.426;10.868;2022-12-18T14:18:45;31.50;;;11.23;;
16832;SDS011;8533;48.426;10.868;2022-12-18T14:26:48;36.97;;;14.10;;
16832;SDS011;8533;48.426;10.868;2022-12-18T14:29:29;29.23;;;10.80;;
16832;SDS011;8533;48.426;10.868;2022-12-18T14:37:01;37.87;;;11.87;;
16832;SDS011;8533;48.426;10.868;2022-12-18T14:39:29;34.47;;;13.37;;
16832;SDS011;8533;48.426;10.868;2022-12-18T14:41:56;34.37;;;13.97;;
16832;SDS011;8533;48.426;10.868;2022-12-18T14:44:24;39.43;;;13.47;;
16832;SDS011;8533;48.426;10.868;2022-12-18T14:46:51;38.80;;;12.97;;
16832;SDS011;8533;48.426;10.868;2022-12-18T14:51:54;27.23;;;11.47;;
16832;SDS011;8533;48.426;10.868;2022-12-18T14:54:23;39.33;;;12.47;;
16832;SDS011;8533;48.426;10.868;2022-12-18T14:57:35;32.47;;;12.20;;
16832;SDS011;8533;48.426;10.868;2022-12-18T15:01:59;36.63;;;14.13;;
16832;SDS011;8533;48.426;10.868;2022-12-18T15:04:40;33.00;;;12.15;;
16832;SDS011;8533;48.426;10.868;2022-12-18T15:15:03;30.23;;;12.27;;
16832;SDS011;8533;48.426;10.868;2022-12-18T15:17:31;33.63;;;11.87;;
16832;SDS011;8533;48.426;10.868;2022-12-18T15:19:59;26.20;;;11.13;;
16832;SDS011;8533;48.426;10.868;2022-12-18T15:22:30;29.30;;;11.80;;
16832;SDS011;8533;48.426;10.868;2022-12-18T15:24:59;39.90;;;13.03;;
16832;SDS011;8533;48.426;10.868;2022-12-18T15:27:29;29.33;;;11.33;;
16832;SDS011;8533;48.426;10.868;2022-12-18T15:32:34;30.97;;;11.67;;
16832;SDS011;8533;48.426;10.868;2022-12-18T15:35:16;32.40;;;12.77;;
16832;SDS011;8533;48.426;10.868;2022-12-18T15:37:45;35.70;;;13.20;;
16832;SDS011;8533;48.426;10.868;2022-12-18T15:40:14;43.03;;;13.13;;
16832;SDS011;8533;48.426;10.868;2022-12-18T15:42:46;28.37;;;12.07;;
16832;SDS011;8533;48.426;10.868;2022-12-18T15:45:33;29.87;;;12.20;;
16832;SDS011;8533;48.426;10.868;2022-12-18T15:48:01;32.83;;;12.70;;
16832;SDS011;8533;48.426;10.868;2022-12-18T15:50:28;31.77;;;12.83;;
16832;SDS011;8533;48.426;10.868;2022-12-18T15:52:56;30.10;;;12.50;;
16832;SDS011;8533;48.426;10.868;2022-12-18T15:55:23;32.00;;;13.03;;
16832;SDS011;8533;48.426;10.868;2022-12-18T15:58:09;29.15;;;12.05;;
16832;SDS011;8533;48.426;10.868;2022-12-18T16:00:38;36.83;;;12.50;;
16832;SDS011;8533;48.426;10.868;2022-12-18T16:03:07;37.33;;;12.53;;
16832;SDS011;8533;48.426;10.868;2022-12-18T16:05:36;33.23;;;13.13;;
16832;SDS011;8533;48.426;10.868;2022-12-18T16:08:03;30.53;;;11.47;;
16832;SDS011;8533;48.426;10.868;2022-12-18T16:10:33;31.93;;;13.30;;
16832;SDS011;8533;48.426;10.868;2022-12-18T16:13:01;37.93;;;14.80;;
16832;SDS011;8533;48.426;10.868;2022-12-18T16:15:28;28.33;;;11.70;;
16832;SDS011;8533;48.426;10.868;2022-12-18T16:17:56;31.93;;;12.37;;
16832;SDS011;8533;48.426;10.868;2022-12-18T16:20:23;32.97;;;13.13;;
16832;SDS011;8533;48.426;10.868;2022-12-18T16:22:56;36.33;;;13.47;;
16832;SDS011;8533;48.426;10.868;2022-12-18T16:25:26;33.83;;;12.60;;
16832;SDS011;8533;48.426;10.868;2022-12-18T16:27:57;34.53;;;13.10;;
16832;SDS011;8533;48.426;10.868;2022-12-18T16:32:57;34.90;;;13.43;;
16832;SDS011;8533;48.426;10.868;2022-12-18T16:35:29;33.07;;;13.83;;
16832;SDS011;8533;48.426;10.868;2022-12-18T16:37:57;47.13;;;16.27;;
16832;SDS011;8533;48.426;10.868;2022-12-18T16:40:25;35.57;;;11.63;;
16832;SDS011;8533;48.426;10.868;2022-12-18T16:42:54;34.83;;;13.37;;
16832;SDS011;8533;48.426;10.868;2022-12-18T16:45:22;37.03;;;12.40;;
16832;SDS011;8533;48.426;10.868;2022-12-18T16:47:49;39.60;;;12.10;;
16832;SDS011;8533;48.426;10.868;2022-12-18T16:50:17;33.90;;;13.53;;
16832;SDS011;8533;48.426;10.868;2022-12-18T16:52:44;31.63;;;14.13;;
16832;SDS011;8533;48.426;10.868;2022-12-18T16:55:11;28.53;;;11.33;;
16832;SDS011;8533;48.426;10.868;2022-12-18T16:57:39;38.10;;;12.83;;
16832;SDS011;8533;48.426;10.868;2022-12-18T17:00:07;44.13;;;15.33;;
16832;SDS011;8533;48.426;10.868;2022-12-18T17:02:35;40.83;;;16.73;;
16832;SDS011;8533;48.426;10.868;2022-12-18T17:05:03;38.70;;;13.27;;
16832;SDS011;8533;48.426;10.868;2022-12-18T17:07:31;37.23;;;13.33;;
16832;SDS011;8533;48.426;10.868;2022-12-18T17:09:58;31.93;;;12.20;;
16832;SDS011;8533;48.426;10.868;2022-12-18T17:12:26;32.83;;;11.83;;
16832;SDS011;8533;48.426;10.868;2022-12-18T17:14:53;32.63;;;12.13;;